Flight Track Log - Related Links

Times and Time Zones

All times are in EDT time to prevent confusion due to time zone crossing. See the N400PU flight status page for this flight to view local times or setup timezone preferences in your user account.

Time Position Orientation Groundspeed Altitude Reporting Facility
EDT Latitude Longitude Course Direction KTS MPH feet Rate Location/Type
Sat 07:56:46 AM 28.5500 -81.3167 41° Northeast 207 238 600  Level Orlando TRACON
Sat 07:57:34 AM 28.5833 -81.2833 41° Northeast 205 236 1,500 771 Climbing Orlando TRACON
Sat 07:58:35 AM 28.6167 -81.2500 41° Northeast 198 228 2,000 893 Climbing Orlando TRACON
Sat 07:59:35 AM 28.6833 -81.2667 348° North 207 238 3,300 1,650 Climbing Orlando TRACON
Sat 08:00:35 AM 28.7333 -81.2667 360° North 197 227 5,300 2,250 Climbing Orlando TRACON
Sat 08:01:35 AM 28.8000 -81.2833 348° North 213 245 7,800 2,250 Climbing Orlando TRACON
Sat 08:02:35 AM 28.8500 -81.3167 330° Northwest 254 292 9,800 1,878 Climbing Orlando TRACON
Sat 08:03:30 AM 28.9128 -81.3414 341° North 279 321 11,400 1,983 Climbing Jacksonville Center
Sat 08:04:30 AM 28.9883 -81.3733 340° North 279 321 13,600 2,150 Climbing Jacksonville Center
Sat 08:05:30 AM 29.0719 -81.3886 351° North 289 333 15,700 1,900 Climbing Jacksonville Center
Sat 08:06:30 AM 29.1536 -81.4114 346° North 294 338 17,400 1,600 Climbing Jacksonville Center
Sat 08:07:30 AM 29.2458 -81.4383 346° North 301 346 18,900 1,700 Climbing Jacksonville Center
Sat 08:08:30 AM 29.3336 -81.4608 347° North 307 353 20,800 1,800 Climbing Jacksonville Center
Sat 08:09:30 AM 29.4194 -81.4811 348° North 312 359 22,500 1,700 Climbing Jacksonville Center
Sat 08:10:30 AM 29.5075 -81.5039 347° North 318 366 24,200 1,800 Climbing Jacksonville Center
Sat 08:11:30 AM 29.5994 -81.5286 347° North 324 373 26,100 1,900 Climbing Jacksonville Center
Sat 08:12:30 AM 29.6894 -81.5514 348° North 329 379 28,000 1,700 Climbing Jacksonville Center
Sat 08:13:30 AM 29.7775 -81.5717 349° North 329 379 29,500 1,350 Climbing Jacksonville Center
Sat 08:14:30 AM 29.8653 -81.5944 347° North 329 379 30,700 1,150 Climbing Jacksonville Center
Sat 08:15:30 AM 29.9511 -81.6172 347° North 329 379 31,800 1,050 Climbing Jacksonville Center
Sat 08:16:30 AM 30.0411 -81.6425 346° North 334 384 32,800 1,000 Climbing Jacksonville Center
Sat 08:17:30 AM 30.1353 -81.6653 348° North 334 384 33,800 950 Climbing Jacksonville Center
Sat 08:18:30 AM 30.2294 -81.6881 348° North 339 390 34,700 600 Climbing Jacksonville Center
Sat 08:19:30 AM 30.3278 -81.7133 347° North 344 396 35,000 150 Climbing Jacksonville Center
Sat 08:20:30 AM 30.4306 -81.7411 347° North 356 410 35,000  Level Jacksonville Center
Sat 08:21:30 AM 30.5372 -81.7711 346° North 379 436 35,000  Level Jacksonville Center
Sat 08:22:30 AM 30.6522 -81.8058 345° North 402 463 35,000  Level Jacksonville Center
Sat 08:23:30 AM 30.7550 -81.8531 338° Northwest 402 463 35,000  Level Jacksonville Center
Sat 08:24:30 AM 30.8369 -81.9272 322° Northwest 379 436 35,000  Level Jacksonville Center
Sat 08:25:30 AM 30.9189 -82.0014 322° Northwest 379 436 35,000  Level Jacksonville Center
Sat 08:26:30 AM 31.0072 -82.0758 324° Northwest 379 436 35,000  Level Jacksonville Center
Sat 08:27:30 AM 31.0911 -82.1478 324° Northwest 385 443 35,000  Level Jacksonville Center
Sat 08:28:30 AM 31.1939 -82.2028 335° Northwest 390 449 35,000  Level Jacksonville Center
Sat 08:29:30 AM 31.2964 -82.2483 339° North 390 449 35,000  Level Jacksonville Center
Sat 08:30:30 AM 31.4008 -82.2939 340° North 395 455 35,000  Level Jacksonville Center
Sat 08:31:30 AM 31.5181 -82.3394 342° North 387 445 35,000 150 Level Jacksonville Center
Sat 08:32:30 AM 31.6186 -82.3850 339° North 392 451 35,300 750 Climbing Jacksonville Center
Sat 08:33:30 AM 31.7125 -82.4311 337° Northwest 385 443 36,500 495 Climbing Jacksonville Center
Sat 08:35:56 AM 31.9461 -82.5408 338° Northwest 374 430 37,000 146 Climbing Atlanta Center
Sat 08:36:56 AM 32.0489 -82.5833 341° North 379 436 37,000  Level Atlanta Center
Sat 08:37:56 AM 32.1561 -82.6331 339° North 391 450 37,000  Level Atlanta Center
Sat 08:38:56 AM 32.2589 -82.6806 339° North 391 450 37,000  Level Atlanta Center
Sat 08:39:56 AM 32.3617 -82.7306 338° Northwest 396 456 37,000  Level Atlanta Center
Sat 08:40:56 AM 32.4644 -82.7733 341° North 396 456 37,000  Level Atlanta Center
Sat 08:41:56 AM 32.5631 -82.8214 338° Northwest 396 456 37,000  Level Atlanta Center
Sat 08:42:56 AM 32.6678 -82.8717 338° Northwest 396 456 37,000  Level Atlanta Center
Sat 08:43:56 AM 32.7725 -82.9197 339° North 396 456 37,000  Level Atlanta Center
Sat 08:44:56 AM 32.8753 -82.9653 340° North 396 456 37,000  Level Atlanta Center
Sat 08:45:56 AM 32.9781 -83.0161 337° Northwest 396 456 37,000  Level Atlanta Center
Sat 08:46:56 AM 33.0786 -83.0619 339° North 396 456 37,000  Level Atlanta Center
Sat 08:47:56 AM 33.1792 -83.1106 338° Northwest 396 456 37,000  Level Atlanta Center
Sat 08:48:56 AM 33.2797 -83.1567 339° North 389 448 37,000  Level Atlanta Center
Sat 08:49:56 AM 33.3822 -83.2028 339° North 389 448 37,000  Level Atlanta Center
Sat 08:50:56 AM 33.4808 -83.2517 338° Northwest 389 448 37,000  Level Atlanta Center
Sat 08:51:56 AM 33.5811 -83.2983 339° North 384 442 37,000  Level Atlanta Center
Sat 08:52:56 AM 33.6733 -83.3422 338° Northwest 384 442 37,000  Level Atlanta Center
Sat 08:53:56 AM 33.7758 -83.3889 339° North 389 448 37,000  Level Atlanta Center
Sat 08:54:56 AM 33.8764 -83.4383 338° Northwest 389 448 37,000  Level Atlanta Center
Sat 08:55:56 AM 33.9789 -83.4878 338° Northwest 395 455 37,000  Level Atlanta Center
Sat 08:56:56 AM 34.0833 -83.5372 339° North 395 455 37,000  Level Atlanta Center
Sat 08:57:56 AM 34.1878 -83.5842 340° North 389 448 37,000  Level Atlanta Center
Sat 08:58:56 AM 34.2903 -83.6364 337° Northwest 394 453 37,000  Level Atlanta Center
Sat 08:59:56 AM 34.3928 -83.6864 338° Northwest 394 453 37,000  Level Atlanta Center
Sat 09:00:56 AM 34.4950 -83.7339 339° North 394 453 37,000  Level Atlanta Center
Sat 09:01:56 AM 34.6100 -83.7914 338° Northwest 400 460 37,000  Level Atlanta Center
Sat 09:02:56 AM 34.7125 -83.8392 339° North 395 455 37,000  Level Atlanta Center
Sat 09:03:56 AM 34.8147 -83.8944 336° Northwest 401 461 37,000  Level Atlanta Center
Sat 09:04:56 AM 34.9169 -83.9450 338° Northwest 395 455 37,000  Level Atlanta Center
Sat 09:05:56 AM 35.0214 -83.9956 338° Northwest 395 455 37,000  Level Atlanta Center
Sat 09:06:56 AM 35.1278 -84.0464 339° North 400 460 37,000  Level Atlanta Center
Sat 09:07:56 AM 35.2342 -84.1022 337° Northwest 400 460 37,000  Level Atlanta Center
Sat 09:08:56 AM 35.3386 -84.1508 339° North 400 460 37,000 -250 Level Atlanta Center
Sat 09:09:56 AM 35.4428 -84.2044 337° Northwest 400 460 36,500 -500 Descending Atlanta Center
Sat 09:10:56 AM 35.5469 -84.2556 338° Northwest 400 460 36,000 -250 Descending Atlanta Center
Sat 09:11:56 AM 35.6511 -84.3072 338° Northwest 400 460 36,000  Level Atlanta Center
Sat 09:12:56 AM 35.7553 -84.3586 338° Northwest 400 460 36,000  Level Atlanta Center
Sat 09:13:56 AM 35.8594 -84.4128 337° Northwest 400 460 36,000  Level Atlanta Center
Sat 09:16:25 AM 36.1064 -84.5356 338° Northwest 397 457 36,000  Level Indianapolis Center
Sat 09:17:27 AM 36.2072 -84.5869 338° Northwest 395 455 36,000  Level Indianapolis Center
Sat 09:18:28 AM 36.3089 -84.6383 338° Northwest 396 456 36,000  Level Indianapolis Center
Sat 09:19:30 AM 36.4292 -84.6997 338° Northwest 392 451 36,000  Level Indianapolis Center
Sat 09:20:31 AM 36.5306 -84.7514 338° Northwest 392 451 36,000  Level Indianapolis Center
Sat 09:21:33 AM 36.6325 -84.8042 337° Northwest 396 456 36,000  Level Indianapolis Center
Sat 09:22:35 AM 36.7331 -84.8553 338° Northwest 392 451 36,000  Level Indianapolis Center
Sat 09:23:36 AM 36.8353 -84.9100 337° Northwest 400 460 36,000  Level Indianapolis Center
Sat 09:24:38 AM 36.9383 -84.9622 338° Northwest 400 460 36,000  Level Indianapolis Center
Sat 09:25:40 AM 37.0567 -85.0231 338° Northwest 398 458 36,000  Level Indianapolis Center
Sat 09:26:41 AM 37.1606 -85.0767 338° Northwest 401 461 36,000  Level Indianapolis Center
Sat 09:27:43 AM 37.2636 -85.1308 337° Northwest 400 460 36,000  Level Indianapolis Center
Sat 09:28:44 AM 37.3667 -85.1853 337° Northwest 401 461 36,000  Level Indianapolis Center
Sat 09:29:46 AM 37.4706 -85.2397 337° Northwest 403 464 36,000  Level Indianapolis Center
Sat 09:30:48 AM 37.5744 -85.2947 337° Northwest 402 463 36,000  Level Indianapolis Center
Sat 09:31:49 AM 37.6758 -85.3503 337° Northwest 400 460 36,000 -293 Level Indianapolis Center
Sat 09:32:51 AM 37.7797 -85.4042 338° Northwest 401 461 35,400 -823 Descending Indianapolis Center
Sat 09:33:53 AM 37.8853 -85.4592 338° Northwest 400 460 34,300 -683 Descending Indianapolis Center
Sat 09:34:54 AM 37.9875 -85.5125 338° Northwest 399 459 34,000 -1,122 Descending Indianapolis Center
Sat 09:35:56 AM 38.1092 -85.5803 336° Northwest 397 457 32,000 -1,935 Descending Indianapolis Center
Sat 09:36:58 AM 38.2119 -85.6361 337° Northwest 400 460 30,000 -1,902 Descending Indianapolis Center
Sat 09:37:59 AM 38.3114 -85.6947 335° Northwest 395 455 28,100 -976 Descending Indianapolis Center
Sat 09:39:01 AM 38.4133 -85.7533 336° Northwest 401 461 28,000 -48 Descending Indianapolis Center
Sat 09:40:03 AM 38.5189 -85.8142 336° Northwest 413 475 28,000  Level Indianapolis Center
Sat 09:41:05 AM 38.6231 -85.8736 336° Northwest 411 473 28,000  Level Indianapolis Center
Sat 09:42:06 AM 38.7261 -85.9328 336° Northwest 407 468 28,000  Level Indianapolis Center
Sat 09:43:08 AM 38.8292 -85.9928 336° Northwest 407 468 28,000 -919 Level Indianapolis Center
Sat 09:44:10 AM 38.9494 -86.0636 335° Northwest 409 471 26,100 -1,854 Descending Indianapolis Center
Sat 09:45:11 AM 39.0508 -86.1239 335° Northwest 404 465 24,200 -1,024 Descending Indianapolis Center
Sat 09:46:13 AM 39.1528 -86.1825 336° Northwest 401 461 24,000 -97 Descending Indianapolis Center
Sat 09:47:15 AM 39.2539 -86.2417 336° Northwest 401 461 24,000 -629 Level Indianapolis Center
Sat 09:48:17 AM 39.3556 -86.3014 336° Northwest 400 460 22,700 -1,597 Descending Indianapolis Center
Sat 09:49:19 AM 39.4519 -86.3575 336° Northwest 385 443 20,700 -2,146 Descending Indianapolis Center
Sat 09:50:20 AM 39.5647 -86.4250 335° Northwest 371 427 18,300 -2,049 Descending Indianapolis Center
Sat 09:51:22 AM 39.6567 -86.4808 335° Northwest 362 417 16,500 -1,597 Descending Indianapolis Center
Sat 09:52:24 AM 39.7450 -86.5331 336° Northwest 347 399 15,000 -1,500 Descending Indianapolis Center
Sat 09:53:26 AM 39.8294 -86.5836 335° Northwest 335 386 13,400 -1,512 Descending Indianapolis Center
Sat 09:54:27 AM 39.9117 -86.6331 335° Northwest 327 376 11,900 -1,512 Descending Indianapolis Center
Sat 09:55:29 AM 39.9797 -86.6733 336° Northwest 274 315 10,300 -1,645 Descending Indianapolis Center
Sat 09:56:31 AM 40.0425 -86.7119 335° Northwest 253 291 8,500 -1,854 Descending Indianapolis Center
Sat 09:57:32 AM 40.1061 -86.7497 336° Northwest 251 289 6,500 -1,951 Descending Indianapolis Center
Sat 09:58:34 AM 40.1711 -86.7886 335° Northwest 255 293 4,500 -2,278 Descending Indianapolis Center
Sat 09:59:20 AM 40.2317 -86.8153 341° North 247 284 2,400 -2,043 Descending Chicago Center
Sat 09:59:21 AM 40.2225 -86.8178 192° South 254 292 2,900 -393 Climbing Chicago Center
Sat 10:00:21 AM 40.2922 -86.8164 North 215 247 2,000 -774 Descending Chicago Center
Sat 10:00:23 AM 40.2981 -86.8139 18° North 235 270 2,100 100 Climbing Chicago Center
Sat 10:01:21 AM 40.3461 -86.8253 350° North 180 207 2,100 98 Level Chicago Center
Sat 10:01:24 AM 40.3500 -86.8242 12° North 211 243 2,200 -98 Climbing Chicago Center
Sat 10:02:22 AM 40.3872 -86.8472 335° Northwest 149 171 2,000 -429 Descending Chicago Center
Sat 10:03:16 AM 40.4047 -86.8811 304° West 106 122 1,400 -667 Descending Chicago Center
Sat 10:05:00 AM 40.4000 -86.9333 333° Northwest  Level FlightAware Approximate

Login

Don't have an account? Register now (free) for customized features, flight alerts, and more!